Biscayne Park, Florida
Current Conditions -  °F | °C
As of 11:53 AM on Friday 24 Oct 2014 (Local Time) from KOPF Reporting Station
Overcast Overcast  
Wind Chill: 78°   Ceiling: 3500
Heat Index: 80°   Visibility: 10mi
Dew Point: 70°   Wind: 21mph
Humidity: 76%   Direction: 60°ENE
Pressure: 29.88"   Gusts: 25mph
Location:  25.9061°N, 80.1512°W
Report Text: KOPF 241553Z 06018G22KT 10SM FEW023 BKN035 OVC060 26/21 A2988 RMK AO2 RAB05E22 SLP120 P0000 T02560211
Loading
Personal Weather Stations






























Interactive Weather Map
Tropical Storm Tracking
New forecast layout! Learn more

10-Day Weather Forecast

Advertisements
Track Severe Weather on mobile